Time;durP1;ratioP1;P1;durP2;ratioP2;P2;SDS_P1;SDS_P2;PMS_P1;PMS_P2;Temp;Humidity;BMP_temperature;BMP_pressure;BME280_temperature;BME280_humidity;BME280_pressure;Samples;Min_cycle;Max_cycle;Signal;HPM_P1;HPM_P2
2021/05/12 00:00:16;;;;;;;1.57;0.62;;;;;;;13.79;49.98;100586.39;1727718;81;21167;-93
2021/05/12 00:02:45;;;;;;;6.97;0.50;;;;;;;13.77;49.86;100588.97;1729471;82;21139;-95
2021/05/12 00:05:12;;;;;;;0.80;0.37;;;;;;;13.71;49.80;100591.95;1734725;82;21125;-95
2021/05/12 00:07:39;;;;;;;0.95;0.42;;;;;;;13.66;49.68;100610.47;1708382;81;21051;-94
2021/05/12 00:10:09;;;;;;;2.62;0.35;;;;;;;13.60;48.92;100608.08;1657232;85;21049;-94
2021/05/12 00:12:36;;;;;;;1.42;0.65;;;;;;;13.52;47.91;100613.60;1710721;82;21146;-96
2021/05/12 00:15:07;;;;;;;1.30;0.40;;;;;;;13.44;47.95;100617.28;1707211;83;22296;-94
2021/05/12 00:17:36;;;;;;;2.15;0.50;;;;;;;13.33;47.94;100607.66;1702603;83;21129;-93
2021/05/12 00:20:05;;;;;;;0.82;0.47;;;;;;;13.22;48.18;100611.21;1690015;83;21143;-92
2021/05/12 00:22:38;;;;;;;0.82;0.30;;;;;;;13.14;48.20;100621.24;1692227;83;21031;-93
2021/05/12 00:25:04;;;;;;;0.93;0.50;;;;;;;13.04;48.07;100598.34;1686278;82;21206;-93
2021/05/12 00:27:31;;;;;;;2.30;0.30;;;;;;;12.97;47.97;100604.69;1697886;83;21764;-92
2021/05/12 00:29:57;;;;;;;0.30;0.30;;;;;;;12.82;48.20;100604.28;1699034;83;21021;-94
2021/05/12 00:32:27;;;;;;;0.40;0.37;;;;;;;12.77;47.55;100613.92;1692195;84;21096;-94
2021/05/12 00:34:53;;;;;;;;;;;;;;;12.69;47.76;100606.87;1722326;82;21040;-93
2021/05/12 00:37:19;;;;;;;0.40;0.30;;;;;;;12.61;47.91;100617.22;1720302;83;20584;-94
2021/05/12 00:39:46;;;;;;;1.20;0.30;;;;;;;12.48;47.94;100622.47;1692776;83;21706;-93
2021/05/12 00:42:13;;;;;;;0.40;0.20;;;;;;;12.44;48.31;100611.84;1682180;83;21111;-93
2021/05/12 00:44:44;;;;;;;1.27;0.40;;;;;;;12.40;48.46;100602.05;1693900;83;21067;-93
2021/05/12 00:47:11;;;;;;;3.90;0.30;;;;;;;12.38;48.58;100608.62;1665500;83;21146;-94
2021/05/12 00:49:39;;;;;;;0.63;0.30;;;;;;;12.34;48.59;100595.30;1685158;83;21506;-93
2021/05/12 00:52:06;;;;;;;0.83;0.40;;;;;;;12.30;48.77;100600.72;1693178;81;21000;-93
2021/05/12 00:54:33;;;;;;;0.97;0.20;;;;;;;12.24;48.86;100596.97;1694677;83;20977;-93
2021/05/12 00:57:00;;;;;;;5.10;0.30;;;;;;;12.18;49.03;100605.77;1692798;81;21040;-92
2021/05/12 00:59:32;;;;;;;0.30;0.30;;;;;;;12.12;49.17;100606.03;1705395;81;21064;-93
2021/05/12 01:02:00;;;;;;;0.40;0.20;;;;;;;12.06;49.35;100597.45;1718851;80;20968;-94
2021/05/12 01:04:27;;;;;;;1.70;0.53;;;;;;;12.01;49.74;100595.85;1737621;80;21036;-93
2021/05/12 01:06:53;;;;;;;;;;;;;;;11.96;49.88;100595.11;1753329;80;21135;-93
2021/05/12 01:09:22;;;;;;;0.60;0.30;;;;;;;11.92;50.09;100594.33;1768425;80;20251;-92
2021/05/12 01:11:49;;;;;;;3.70;0.40;;;;;;;11.83;50.39;100595.77;1746684;80;22566;-92
2021/05/12 01:14:16;;;;;;;0.60;0.30;;;;;;;11.77;50.50;100585.85;1713375;83;21119;-94
2021/05/12 01:16:43;;;;;;;3.73;0.27;;;;;;;11.71;50.65;100570.56;1731443;80;21094;-93
2021/05/12 01:19:11;;;;;;;0.93;0.40;;;;;;;11.66;50.82;100587.69;1706097;82;21286;-93
2021/05/12 01:21:38;;;;;;;0.73;0.30;;;;;;;11.60;51.04;100593.77;1714454;81;21088;-92
2021/05/12 01:24:07;;;;;;;0.50;0.50;;;;;;;11.54;51.13;100590.52;1692310;82;21170;-92
2021/05/12 01:26:35;;;;;;;0.50;0.50;;;;;;;11.48;51.40;100602.77;1708715;83;21056;-93
2021/05/12 01:29:04;;;;;;;3.03;0.63;;;;;;;11.41;51.52;100605.87;1654916;84;21094;-93
2021/05/12 01:31:40;;;;;;;0.30;0.30;;;;;;;11.34;51.69;100595.61;1657813;84;21154;-94
2021/05/12 01:34:18;;;;;;;0.70;0.40;;;;;;;11.27;51.99;100604.38;1655688;83;21103;-93
2021/05/12 01:36:47;;;;;;;0.85;0.30;;;;;;;11.18;52.20;100602.82;1675035;84;21656;-93
2021/05/12 01:39:16;;;;;;;4.20;0.27;;;;;;;11.13;52.34;100594.53;1689105;82;21068;-93
2021/05/12 01:41:47;;;;;;;0.40;0.40;;;;;;;11.08;52.57;100596.95;1659702;83;21728;-93
2021/05/12 01:47:04;;;;;;;3.93;1.10;;;;;;;10.88;53.53;100604.16;1804908;79;22870;-93
2021/05/12 01:49:42;;;;;;;1.13;0.30;;;;;;;10.88;53.53;100604.16;1754540;80;21442;-94
2021/05/12 01:52:11;;;;;;;1.03;0.83;;;;;;;10.83;53.61;100603.05;1766160;79;21071;-93
2021/05/12 01:54:43;;;;;;;1.90;0.30;;;;;;;10.77;53.74;100617.95;1762772;79;21653;-93
2021/05/12 01:57:10;;;;;;;1.03;0.47;;;;;;;10.73;53.95;100623.84;1737351;80;21671;-93
2021/05/12 01:59:37;;;;;;;0.27;0.20;;;;;;;10.67;54.07;100619.55;1682857;84;21098;-92
2021/05/12 02:02:04;;;;;;;2.43;0.27;;;;;;;10.64;54.31;100615.94;1708192;82;21121;-93
2021/05/12 02:04:31;;;;;;;0.50;0.30;;;;;;;10.58;54.39;100620.64;1712748;82;21046;-93
2021/05/12 02:07:02;;;;;;;2.30;0.60;;;;;;;10.51;54.66;100621.88;1707356;82;21717;-93
2021/05/12 02:09:28;;;;;;;1.70;0.30;;;;;;;10.47;54.74;100614.41;1713496;82;21108;-94
2021/05/12 02:11:57;;;;;;;0.30;0.30;;;;;;;10.41;54.97;100594.64;1697723;82;21181;-92
2021/05/12 02:14:26;;;;;;;2.93;0.40;;;;;;;10.37;55.16;100607.19;1711254;82;21122;-93
2021/05/12 02:16:59;;;;;;;0.77;0.40;;;;;;;10.31;55.26;100622.88;1708905;82;21287;-92
2021/05/12 02:19:26;;;;;;;1.93;0.20;;;;;;;10.27;55.36;100606.91;1736169;81;21369;-93
2021/05/12 02:21:58;;;;;;;1.93;0.40;;;;;;;10.23;55.49;100609.61;1713356;81;21134;-93
2021/05/12 02:24:34;;;;;;;0.67;0.30;;;;;;;10.20;55.74;100615.80;1683598;83;21114;-93
2021/05/12 02:27:03;;;;;;;0.37;0.37;;;;;;;10.17;55.96;100627.64;1692777;82;21137;-93
2021/05/12 02:29:32;;;;;;;0.37;0.37;;;;;;;10.15;56.01;100628.30;1687600;80;21000;-92
2021/05/12 02:32:01;;;;;;;0.50;0.30;;;;;;;10.09;56.21;100631.17;1683789;82;21241;-93
2021/05/12 02:34:36;;;;;;;1.17;0.20;;;;;;;10.07;56.28;100629.70;1678795;84;21160;-92
2021/05/12 02:37:17;;;;;;;0.40;0.40;;;;;;;10.03;56.46;100635.06;1705960;82;21074;-93
2021/05/12 02:39:45;;;;;;;0.93;0.40;;;;;;;10.01;56.69;100630.42;1617347;85;21376;-91
2021/05/12 02:42:13;;;;;;;2.30;0.60;;;;;;;9.97;56.81;100627.80;1617855;87;21197;-92
2021/05/12 02:44:41;;;;;;;0.60;0.40;;;;;;;9.96;56.82;100626.95;1665380;83;21162;-94
2021/05/12 02:47:08;;;;;;;0.50;0.50;;;;;;;9.97;56.95;100650.43;1667079;85;21393;-94
2021/05/12 02:49:35;;;;;;;3.00;0.60;;;;;;;9.99;56.92;100635.10;1675291;84;21173;-94
2021/05/12 02:52:05;;;;;;;1.27;0.50;;;;;;;10.03;56.83;100634.55;1675923;84;21151;-92
2021/05/12 02:54:39;;;;;;;0.47;0.47;;;;;;;10.11;56.76;100635.00;1680098;83;21123;-92
2021/05/12 02:57:07;;;;;;;0.30;0.30;;;;;;;10.36;56.38;100650.34;1708176;83;21280;-90
2021/05/12 02:59:34;;;;;;;7.20;1.13;;;;;;;10.86;55.19;100633.37;1715686;82;21125;-91
2021/05/12 03:02:00;;;;;;;0.40;0.40;;;;;;;11.47;54.11;100641.99;1699316;83;21558;-89
2021/05/12 03:04:27;;;;;;;5.30;0.60;;;;;;;12.20;52.40;100647.83;1691433;82;21158;-88
2021/05/12 03:06:56;;;;;;;0.20;0.20;;;;;;;12.87;50.57;100629.64;1697624;81;21071;-88
2021/05/12 03:09:26;;;;;;;1.72;0.30;;;;;;;13.47;48.26;100629.95;1699927;83;21111;-92
2021/05/12 03:11:53;;;;;;;0.45;0.30;;;;;;;13.95;47.64;100633.92;1671562;84;21048;-92
2021/05/12 03:14:19;;;;;;;1.20;0.20;;;;;;;14.46;46.26;100628.50;1683527;83;21139;-91
2021/05/12 03:16:46;;;;;;;0.33;0.20;;;;;;;14.92;45.20;100635.19;1689122;83;21070;-92
2021/05/12 03:19:13;;;;;;;2.55;0.20;;;;;;;15.41;44.32;100630.30;1683521;83;21127;-90
2021/05/12 03:21:39;;;;;;;0.30;0.30;;;;;;;15.74;42.64;100632.83;1700504;83;21107;-90
2021/05/12 03:24:06;;;;;;;0.65;0.10;;;;;;;16.13;42.48;100620.19;1683264;84;21097;-92
2021/05/12 03:26:35;;;;;;;0.10;0.10;;;;;;;16.65;41.22;100605.67;1697960;84;21075;-92
2021/05/12 03:29:05;;;;;;;1.25;0.20;;;;;;;17.04;40.23;100607.16;1685485;84;21076;-90
2021/05/12 03:31:31;;;;;;;0.47;0.10;;;;;;;17.32;39.35;100605.27;1686247;84;21064;-90
2021/05/12 03:34:00;;;;;;;0.10;0.10;;;;;;;17.57;38.80;100609.72;1685642;84;20996;-91
2021/05/12 03:36:27;;;;;;;1.42;0.10;;;;;;;17.90;38.03;100562.64;1696777;84;21071;-91
2021/05/12 03:38:56;;;;;;;3.58;0.10;;;;;;;18.07;37.79;100589.76;1683883;84;21000;-92
2021/05/12 03:41:22;;;;;;;0.05;0.00;;;;;;;18.30;37.75;100598.41;1685275;83;21122;-91
2021/05/12 03:43:47;;;;;;;;;;;;;;;18.55;36.23;100587.91;1687098;84;21039;-91
2021/05/12 03:46:14;;;;;;;0.40;0.00;;;;;;;18.38;36.52;100587.79;1694871;83;20202;-90
2021/05/12 03:48:41;;;;;;;0.17;0.10;;;;;;;18.27;37.04;100591.61;1669035;85;21079;-92
2021/05/12 03:51:08;;;;;;;2.47;0.10;;;;;;;18.48;36.60;100588.05;1690967;83;21091;-92
2021/05/12 03:53:34;;;;;;;0.98;0.00;;;;;;;18.80;36.14;100593.08;1697674;83;21051;-91
2021/05/12 03:56:00;;;;;;;0.42;0.03;;;;;;;19.05;35.68;100590.13;1697670;82;21182;-90
2021/05/12 03:58:27;;;;;;;0.13;0.05;;;;;;;19.29;35.48;100585.99;1702425;82;21115;-91
2021/05/12 04:00:54;;;;;;;0.00;0.00;;;;;;;18.81;34.38;100482.67;1701732;83;21103;-92
2021/05/12 04:03:20;;;;;;;0.10;0.00;;;;;;;19.77;34.17;100609.92;1719320;82;21198;-91
2021/05/12 04:05:47;;;;;;;0.65;0.05;;;;;;;19.95;33.95;100595.92;1695402;83;21182;-91
2021/05/12 04:08:14;;;;;;;0.42;0.00;;;;;;;20.03;33.54;100601.73;1688139;83;21067;-93
2021/05/12 04:10:40;;;;;;;0.10;0.05;;;;;;;19.90;34.20;100611.52;1686776;83;21111;-93
2021/05/12 04:13:12;;;;;;;0.08;0.00;;;;;;;20.07;33.95;100609.38;1706275;83;21062;-91
2021/05/12 04:15:40;;;;;;;0.05;0.00;;;;;;;20.36;33.27;100612.80;1685675;85;21215;-93
2021/05/12 04:18:07;;;;;;;0.60;0.00;;;;;;;20.47;33.23;100630.04;1686055;83;21121;-91
2021/05/12 04:20:33;;;;;;;0.37;0.00;;;;;;;20.57;32.75;100609.36;1692854;83;21149;-91
2021/05/12 04:22:59;;;;;;;;;;;;;;;20.58;32.58;100606.11;1706087;82;21560;-92
2021/05/12 04:25:30;;;;;;;1.85;0.10;;;;;;;20.48;32.97;100604.62;1747957;82;21014;-90
2021/05/12 04:27:57;;;;;;;0.20;0.10;;;;;;;20.49;32.85;100611.66;1722231;82;21228;-91
2021/05/12 04:30:24;;;;;;;0.10;0.00;;;;;;;20.58;32.83;100623.72;1721658;82;21139;-92
2021/05/12 04:32:51;;;;;;;0.40;0.00;;;;;;;20.70;32.86;100616.87;1719891;83;21055;-92
2021/05/12 04:35:19;;;;;;;0.10;0.10;;;;;;;20.73;32.59;100598.23;1694272;83;21062;-92
2021/05/12 04:37:49;;;;;;;0.95;0.10;;;;;;;20.68;32.47;100602.25;1669948;83;21062;-92
2021/05/12 04:40:17;;;;;;;0.47;0.00;;;;;;;20.61;32.72;100599.70;1690516;83;21202;-91
2021/05/12 04:42:44;;;;;;;0.50;0.00;;;;;;;20.61;32.71;100607.83;1698314;83;21051;-92
2021/05/12 04:45:12;;;;;;;0.20;0.10;;;;;;;20.60;32.89;100617.00;1694514;84;21082;-91
2021/05/12 04:47:38;;;;;;;0.95;0.10;;;;;;;20.56;32.87;100607.70;1682919;83;21105;-91
2021/05/12 04:50:10;;;;;;;1.00;0.57;;;;;;;20.55;33.08;100618.27;1692827;83;21156;-91
2021/05/12 04:52:37;;;;;;;0.93;0.10;;;;;;;20.46;33.13;100601.34;1707192;83;21738;-92
2021/05/12 04:55:06;;;;;;;0.20;0.10;;;;;;;20.34;33.18;100602.25;1694370;82;21201;-92
2021/05/12 04:57:34;;;;;;;0.33;0.10;;;;;;;20.17;33.48;100607.66;1722983;81;21655;-91
2021/05/12 05:00:00;;;;;;;1.20;0.10;;;;;;;20.10;33.68;100600.74;1693591;83;21812;-92
2021/05/12 05:02:31;;;;;;;0.40;0.10;;;;;;;20.07;33.68;100614.24;1649067;83;21020;-92
2021/05/12 05:04:57;;;;;;;4.33;0.10;;;;;;;19.93;33.85;100624.56;1691014;84;21073;-92
2021/05/12 05:07:23;;;;;;;0.62;0.10;;;;;;;19.81;34.06;100627.84;1649502;84;21592;-92
2021/05/12 05:09:49;;;;;;;1.40;0.13;;;;;;;19.69;34.48;100609.48;1684094;83;21004;-91
2021/05/12 05:12:15;;;;;;;1.45;0.20;;;;;;;19.62;34.88;100635.30;1691715;83;21080;-91
2021/05/12 05:14:41;;;;;;;1.67;0.10;;;;;;;19.65;34.66;100620.78;1671466;81;21111;-91
2021/05/12 05:17:07;;;;;;;0.70;0.10;;;;;;;19.60;34.85;100622.56;1681008;82;21048;-92
2021/05/12 05:19:33;;;;;;;0.75;0.10;;;;;;;19.54;34.79;100625.70;1677572;84;21099;-91
2021/05/12 05:22:00;;;;;;;1.05;0.10;;;;;;;19.41;35.01;100647.06;1664480;84;21122;-91
2021/05/12 05:24:26;;;;;;;0.50;0.10;;;;;;;19.28;35.16;100630.31;1671792;84;21728;-91
2021/05/12 05:26:52;;;;;;;0.55;0.45;;;;;;;19.06;35.81;100610.16;1681074;84;21158;-91
2021/05/12 05:29:17;;;;;;;0.13;0.10;;;;;;;18.96;36.22;100599.11;1672655;85;21619;-92
2021/05/12 05:31:44;;;;;;;0.20;0.10;;;;;;;18.90;37.22;100610.06;1680204;84;21195;-92
2021/05/12 05:34:28;;;;;;;0.90;0.13;;;;;;;18.96;36.25;100607.75;1686626;84;21157;-91
2021/05/12 05:37:12;;;;;;;2.55;0.10;;;;;;;19.07;35.98;100620.42;1676680;83;21214;-91
2021/05/12 05:39:57;;;;;;;0.53;0.10;;;;;;;19.11;35.47;100634.28;1692180;82;21171;-92
2021/05/12 05:42:42;;;;;;;1.95;0.00;;;;;;;18.96;36.16;100618.02;1655056;84;21107;-92
2021/05/12 05:45:16;;;;;;;0.95;0.10;;;;;;;18.94;35.97;100613.39;1639349;85;21118;-92
2021/05/12 05:48:00;;;;;;;0.13;0.10;;;;;;;18.75;35.93;100624.83;1672208;84;21128;-92
2021/05/12 05:50:45;;;;;;;0.30;0.10;;;;;;;18.51;36.54;100606.45;1684976;84;21099;-92
2021/05/12 05:53:29;;;;;;;2.55;0.10;;;;;;;18.55;36.40;100618.42;1681871;84;21118;-92
2021/05/12 05:56:14;;;;;;;1.65;0.10;;;;;;;17.97;37.26;100615.95;1677757;84;21226;-92
2021/05/12 05:59:00;;;;;;;1.02;0.28;;;;;;;17.97;37.26;100615.95;1684087;84;21162;-92
2021/05/12 06:01:46;;;;;;;0.17;0.10;;;;;;;17.81;37.25;100632.74;1670557;84;20991;-91
2021/05/12 06:04:12;;;;;;;0.62;0.08;;;;;;;17.60;37.54;100603.08;1685633;82;21070;-92
2021/05/12 06:06:56;;;;;;;0.10;0.10;;;;;;;17.58;38.09;100590.35;1669459;84;21094;-90
2021/05/12 06:09:41;;;;;;;0.10;0.10;;;;;;;17.70;38.12;100587.97;1683914;82;21177;-91
2021/05/12 06:12:25;;;;;;;0.08;0.00;;;;;;;17.88;37.94;100580.39;1661832;84;21094;-91
2021/05/12 06:15:23;;;;;;;2.50;0.10;;;;;;;17.96;37.20;100587.33;1650949;85;21740;-91
2021/05/12 06:18:10;;;;;;;0.20;0.00;;;;;;;18.11;36.51;100590.94;1645810;85;21155;-91
2021/05/12 06:20:56;;;;;;;0.00;0.00;;;;;;;18.32;35.93;100607.09;1626602;87;21258;-92
2021/05/12 06:23:37;;;;;;;0.75;0.00;;;;;;;18.15;35.64;100604.25;1557723;85;21174;-92
2021/05/12 06:26:22;;;;;;;2.10;0.00;;;;;;;17.88;36.18;100606.54;1639598;85;21736;-91
2021/05/12 06:29:08;;;;;;;0.80;0.00;;;;;;;17.50;36.74;100568.59;1635090;85;21652;-91
2021/05/12 06:31:52;;;;;;;2.75;0.10;;;;;;;17.00;37.42;100601.11;1653489;85;21731;-92
2021/05/12 06:34:37;;;;;;;0.13;0.00;;;;;;;16.42;38.21;100607.13;1663610;85;21458;-91
2021/05/12 06:37:22;;;;;;;0.55;0.10;;;;;;;15.93;39.03;100600.68;1668187;85;21071;-91
2021/05/12 06:40:07;;;;;;;0.00;0.00;;;;;;;15.52;40.03;100599.23;1655363;85;21147;-90
2021/05/12 06:42:35;;;;;;;0.42;0.00;;;;;;;15.39;40.45;100622.97;1647704;85;21059;-90
2021/05/12 06:45:01;;;;;;;0.45;0.00;;;;;;;15.43;40.38;100600.55;1670340;85;21036;-91
2021/05/12 06:47:27;;;;;;;0.10;0.00;;;;;;;15.64;39.86;100594.02;1641126;85;21160;-91
2021/05/12 06:49:53;;;;;;;3.17;0.00;;;;;;;15.84;39.97;100596.59;1627585;87;21151;-91
2021/05/12 06:52:19;;;;;;;0.75;0.00;;;;;;;16.08;39.19;100585.58;1621401;86;21641;-92
2021/05/12 06:54:47;;;;;;;0.40;0.10;;;;;;;16.28;38.74;100601.57;1611924;88;21113;-91
2021/05/12 06:57:13;;;;;;;0.42;0.00;;;;;;;16.45;38.49;100614.77;1631100;87;21099;-89
2021/05/12 06:59:38;;;;;;;0.00;0.00;;;;;;;16.61;37.61;100612.55;1654148;86;21487;-89
2021/05/12 07:02:05;;;;;;;3.75;0.00;;;;;;;16.59;37.38;100614.64;1641625;85;22234;-91
2021/05/12 07:04:31;;;;;;;0.00;0.00;;;;;;;16.30;37.93;100611.59;1618972;88;21065;-91
2021/05/12 07:06:57;;;;;;;0.00;0.00;;;;;;;15.96;38.32;100613.17;1564015;89;21088;-90
2021/05/12 07:09:23;;;;;;;0.03;0.00;;;;;;;15.58;39.17;100613.98;1604958;88;21040;-89
2021/05/12 07:11:48;;;;;;;1.75;0.00;;;;;;;15.20;39.87;100622.02;1627332;87;21090;-90
2021/05/12 07:14:14;;;;;;;1.87;0.00;;;;;;;14.94;40.70;100610.83;1623760;86;21151;-89
2021/05/12 07:16:40;;;;;;;0.30;0.00;;;;;;;14.67;41.44;100606.83;1640296;86;21044;-91
2021/05/12 07:19:07;;;;;;;0.00;0.00;;;;;;;14.45;42.05;100596.84;1637279;86;21073;-91
2021/05/12 07:21:33;;;;;;;1.42;0.03;;;;;;;14.28;42.72;100611.67;1637000;86;21143;-92
2021/05/12 07:23:59;;;;;;;0.20;0.00;;;;;;;14.11;42.85;100600.03;1637928;86;21669;-92
2021/05/12 07:26:25;;;;;;;0.93;0.28;;;;;;;13.99;43.27;100592.28;1639815;86;21127;-92
2021/05/12 07:28:52;;;;;;;;;;;;;;;13.93;43.56;100603.30;1618018;88;21199;-89
2021/05/12 07:31:20;;;;;;;0.15;0.10;;;;;;;13.89;43.76;100602.59;1627665;87;20184;-91
2021/05/12 07:33:47;;;;;;;0.20;0.00;;;;;;;13.76;43.79;100576.59;1626686;87;21609;-89
2021/05/12 07:36:13;;;;;;;1.27;0.00;;;;;;;13.71;44.43;100579.89;1626650;87;21641;-91
2021/05/12 07:38:40;;;;;;;0.53;0.00;;;;;;;13.70;44.66;100602.33;1632804;86;21605;-90
2021/05/12 07:41:06;;;;;;;0.98;0.00;;;;;;;13.62;44.71;100604.69;1642048;85;21103;-91
2021/05/12 07:43:32;;;;;;;0.20;0.10;;;;;;;13.56;44.78;100593.94;1619843;86;21048;-91
2021/05/12 07:46:00;;;;;;;0.47;0.10;;;;;;;13.50;45.41;100609.48;1598144;88;21199;-91
2021/05/12 07:48:26;;;;;;;0.30;0.00;;;;;;;13.43;45.67;100592.89;1652051;85;21117;-91
2021/05/12 07:50:52;;;;;;;0.00;0.00;;;;;;;13.37;45.86;100600.39;1662482;85;21056;-91
2021/05/12 07:53:18;;;;;;;1.45;0.10;;;;;;;13.32;46.21;100602.84;1666381;85;21091;-91
2021/05/12 07:55:44;;;;;;;0.40;0.10;;;;;;;13.27;46.55;100602.56;1647782;85;21083;-91
2021/05/12 07:58:10;;;;;;;0.70;0.10;;;;;;;13.22;47.02;100601.84;1677298;85;21064;-91
2021/05/12 08:00:36;;;;;;;1.75;0.10;;;;;;;13.21;46.85;100614.08;1665801;85;22233;-91
2021/05/12 08:03:02;;;;;;;0.65;0.00;;;;;;;13.16;46.72;100608.48;1637049;86;21055;-93
2021/05/12 08:05:29;;;;;;;0.95;0.10;;;;;;;13.10;46.80;100610.11;1610865;88;22428;-90
2021/05/12 08:07:55;;;;;;;0.10;0.00;;;;;;;13.05;47.07;100597.33;1607254;88;21147;-92
2021/05/12 08:10:21;;;;;;;2.25;0.10;;;;;;;13.04;47.35;100596.19;1619646;86;21036;-91
2021/05/12 08:12:47;;;;;;;0.23;0.08;;;;;;;13.05;47.57;100588.46;1643597;86;21031;-91
2021/05/12 08:15:14;;;;;;;0.28;0.10;;;;;;;13.04;47.77;100588.98;1614779;88;21085;-91
2021/05/12 08:17:40;;;;;;;3.27;0.10;;;;;;;13.10;47.56;100579.33;1609533;89;21156;-91
2021/05/12 08:20:07;;;;;;;1.85;0.00;;;;;;;13.16;47.85;100573.17;1610532;88;21693;-93
2021/05/12 08:22:33;;;;;;;0.00;0.00;;;;;;;13.25;47.39;100572.50;1620189;85;21534;-92
2021/05/12 08:24:59;;;;;;;;;;;;;;;13.28;47.27;100581.48;1659497;85;22361;-91
2021/05/12 08:27:25;;;;;;;0.78;0.23;;;;;;;13.26;47.53;100582.20;1668722;84;20261;-92
2021/05/12 08:29:52;;;;;;;4.62;0.45;;;;;;;13.19;47.80;100558.59;1678257;83;21688;-93
2021/05/12 08:32:18;;;;;;;1.52;0.20;;;;;;;13.25;47.93;100559.11;1682366;84;21086;-92
2021/05/12 08:34:44;;;;;;;1.52;0.10;;;;;;;13.36;47.65;100573.30;1667513;84;21263;-92
2021/05/12 08:37:11;;;;;;;0.10;0.10;;;;;;;13.48;47.23;100544.07;1676970;84;21099;-91
2021/05/12 08:39:38;;;;;;;1.95;0.20;;;;;;;13.58;47.27;100553.90;1677929;85;21176;-92
2021/05/12 08:42:06;;;;;;;2.87;0.08;;;;;;;13.62;46.98;100569.05;1673364;84;21068;-92
2021/05/12 08:44:34;;;;;;;0.98;0.10;;;;;;;13.62;46.59;100560.49;1674326;84;21024;-91
2021/05/12 08:47:01;;;;;;;0.57;0.10;;;;;;;13.56;46.38;100567.16;1680045;84;21099;-91
2021/05/12 08:49:28;;;;;;;0.20;0.10;;;;;;;13.47;46.80;100548.28;1678180;83;21059;-91
2021/05/12 08:51:55;;;;;;;0.50;0.23;;;;;;;13.43;47.04;100543.35;1652809;84;21070;-91
2021/05/12 08:54:22;;;;;;;0.40;0.10;;;;;;;13.50;46.97;100544.69;1676458;83;21743;-92
2021/05/12 08:56:50;;;;;;;0.45;0.10;;;;;;;13.53;46.92;100548.84;1678639;84;21147;-91
2021/05/12 08:59:16;;;;;;;0.10;0.03;;;;;;;13.55;46.81;100542.23;1649561;85;21236;-92
2021/05/12 09:01:45;;;;;;;0.17;0.00;;;;;;;13.60;46.70;100545.14;1646528;86;21120;-92
2021/05/12 09:04:13;;;;;;;0.00;0.00;;;;;;;13.62;46.33;100545.77;1646044;86;21130;-92
2021/05/12 09:06:38;;;;;;;;;;;;;;;13.61;46.07;100530.70;1674910;84;21001;-91
2021/05/12 09:09:08;;;;;;;1.65;0.10;;;;;;;13.57;46.29;100554.09;1678047;84;20632;-92
2021/05/12 09:11:35;;;;;;;0.15;0.00;;;;;;;13.49;46.38;100527.52;1650132;84;21526;-93
2021/05/12 09:14:04;;;;;;;0.13;0.10;;;;;;;13.45;46.40;100545.83;1658411;86;21656;-93
2021/05/12 09:16:34;;;;;;;0.20;0.10;;;;;;;13.42;46.49;100534.17;1624855;84;21142;-93
2021/05/12 09:19:12;;;;;;;1.45;0.00;;;;;;;13.37;46.46;100542.83;1675347;85;21128;-92
2021/05/12 09:22:03;;;;;;;0.42;0.10;;;;;;;13.36;46.58;100550.53;1629520;85;21176;-93
2021/05/12 09:24:40;;;;;;;2.37;0.33;;;;;;;13.37;46.63;100560.23;1620719;87;21131;-92
2021/05/12 09:27:22;;;;;;;;;;;;;;;13.38;46.69;100510.18;1587995;88;21128;-92
2021/05/12 09:29:59;;;;;;;2.20;0.10;;;;;;;13.44;46.96;100530.26;1652256;86;20540;-92
2021/05/12 09:32:28;;;;;;;0.10;0.10;;;;;;;13.51;47.09;100510.20;1636169;86;21073;-93
2021/05/12 09:35:04;;;;;;;0.45;0.10;;;;;;;13.70;47.25;100499.73;1640078;86;21051;-91
2021/05/12 09:37:40;;;;;;;2.50;0.00;;;;;;;13.92;45.58;100508.37;1673600;84;21071;-93
2021/05/12 09:40:16;;;;;;;0.35;0.30;;;;;;;13.98;45.09;100502.20;1645158;86;21152;-91
2021/05/12 09:42:49;;;;;;;0.10;0.10;;;;;;;13.95;45.12;100517.34;1657951;84;21622;-92
2021/05/12 09:45:21;;;;;;;0.30;0.10;;;;;;;13.92;45.45;100515.07;1645259;86;21104;-92
2021/05/12 09:47:51;;;;;;;1.50;0.10;;;;;;;13.91;45.54;100493.34;1654654;84;21147;-92
2021/05/12 09:50:26;;;;;;;0.10;0.10;;;;;;;13.92;45.37;100546.73;1627780;86;21127;-92
2021/05/12 09:52:56;;;;;;;1.77;0.10;;;;;;;13.92;45.10;100534.67;1694487;83;21661;-92
2021/05/12 09:55:35;;;;;;;0.20;0.00;;;;;;;13.88;45.31;100530.77;1637599;85;21220;-92
2021/05/12 09:58:11;;;;;;;0.20;0.10;;;;;;;13.87;45.54;100524.27;1624715;85;21628;-93
2021/05/12 10:00:44;;;;;;;1.22;0.10;;;;;;;13.80;45.67;100504.97;1634959;86;21111;-94
2021/05/12 10:03:13;;;;;;;0.10;0.10;;;;;;;13.92;45.83;100496.31;1634566;86;21060;-92
2021/05/12 10:06:02;;;;;;;0.10;0.00;;;;;;;14.05;45.93;100492.28;1591229;87;21122;-94
2021/05/12 10:08:33;;;;;;;1.45;0.10;;;;;;;14.26;45.52;100483.21;1692257;85;21728;-92
2021/05/12 10:11:05;;;;;;;0.20;0.10;;;;;;;14.44;44.68;100498.63;1687314;85;21182;-93
2021/05/12 10:13:33;;;;;;;0.33;0.10;;;;;;;14.52;43.60;100501.11;1635511;86;21135;-94
2021/05/12 10:16:05;;;;;;;0.03;0.00;;;;;;;14.59;43.69;100483.67;1655323;85;21099;-94
2021/05/12 10:18:33;;;;;;;0.30;0.00;;;;;;;14.65;43.01;100498.91;1680524;85;21685;-93
2021/05/12 10:21:05;;;;;;;;;;;;;;;14.68;42.55;100474.87;1639046;85;21052;-94
2021/05/12 10:23:31;;;;;;;0.55;0.08;;;;;;;14.73;42.17;100496.02;1679819;85;20234;-93
2021/05/12 10:25:58;;;;;;;0.13;0.00;;;;;;;14.74;42.23;100466.79;1632843;86;21116;-93
2021/05/12 10:28:25;;;;;;;0.65;0.00;;;;;;;14.83;41.92;100475.43;1648130;85;21076;-92
2021/05/12 10:31:13;;;;;;;0.85;0.00;;;;;;;14.89;41.89;100467.86;1631935;85;21140;-93
2021/05/12 10:33:51;;;;;;;0.28;0.20;;;;;;;14.93;41.88;100454.31;1648716;84;21718;-92
2021/05/12 10:36:19;;;;;;;0.30;0.00;;;;;;;14.97;41.86;100462.27;1619846;87;21150;-92
2021/05/12 10:38:47;;;;;;;0.80;0.00;;;;;;;14.99;41.67;100474.95;1654444;85;21710;-92
2021/05/12 10:41:42;;;;;;;0.70;0.10;;;;;;;14.99;41.65;100458.84;1666569;84;21031;-93
2021/05/12 10:47:07;;;;;;;3.60;0.05;;;;;;;14.98;41.29;100470.61;1645783;87;21629;-93
2021/05/12 10:49:37;;;;;;;1.75;0.00;;;;;;;14.97;41.46;100468.98;1637383;86;21647;-92
2021/05/12 10:52:09;;;;;;;1.20;0.00;;;;;;;14.96;41.26;100458.45;1651274;86;21619;-93
2021/05/12 10:54:48;;;;;;;0.10;0.00;;;;;;;14.93;41.36;100466.39;1625218;87;21145;-94
2021/05/12 10:57:46;;;;;;;0.20;0.00;;;;;;;14.88;41.61;100459.52;1630882;86;21383;-93
2021/05/12 11:00:15;;;;;;;0.28;0.00;;;;;;;14.84;42.07;100452.09;1624100;84;21094;-92
2021/05/12 11:03:04;;;;;;;0.10;0.00;;;;;;;14.80;41.79;100455.72;1640334;86;21757;-92
2021/05/12 11:05:44;;;;;;;0.30;0.10;;;;;;;14.82;41.83;100446.13;1644781;85;21173;-93
2021/05/12 11:08:17;;;;;;;0.20;0.10;;;;;;;14.81;41.88;100458.72;1618395;87;21119;-92
2021/05/12 11:10:58;;;;;;;1.60;0.10;;;;;;;14.81;42.00;100426.52;1606107;88;21154;-92
2021/05/12 11:13:28;;;;;;;0.33;0.00;;;;;;;14.88;42.21;100425.98;1606483;86;21151;-93
2021/05/12 11:16:00;;;;;;;0.35;0.15;;;;;;;15.03;41.96;100416.80;1627827;87;21201;-93
2021/05/12 11:18:40;;;;;;;0.20;0.00;;;;;;;15.13;41.45;100438.11;1623443;87;21153;-91
2021/05/12 11:21:42;;;;;;;1.95;0.00;;;;;;;15.22;41.51;100433.81;1616567;87;21134;-92
2021/05/12 11:24:14;;;;;;;0.35;0.10;;;;;;;15.21;41.21;100456.35;1571675;88;21105;-92
2021/05/12 11:32:05;;;;;;;1.65;0.00;;;;;;;15.04;41.88;100415.24;1625614;87;21056;-91
2021/05/12 11:34:41;;;;;;;0.20;0.08;;;;;;;15.07;41.79;100402.74;1604291;87;21289;-93
2021/05/12 11:37:21;;;;;;;0.93;0.03;;;;;;;15.14;41.98;100406.71;1631050;86;21156;-93
2021/05/12 11:39:49;;;;;;;0.03;0.00;;;;;;;15.23;41.16;100396.02;1647160;85;21167;-92
2021/05/12 11:42:21;;;;;;;0.00;0.00;;;;;;;15.29;41.00;100407.22;1639392;86;22306;-91
2021/05/12 11:44:51;;;;;;;0.33;0.00;;;;;;;15.35;41.12;100417.61;1657897;85;21138;-91
2021/05/12 11:47:30;;;;;;;0.50;0.10;;;;;;;15.44;41.04;100410.12;1624780;86;21103;-92
2021/05/12 11:49:57;;;;;;;0.82;0.00;;;;;;;15.53;40.88;100407.47;1641189;86;21223;-90
2021/05/12 11:52:29;;;;;;;1.00;0.10;;;;;;;15.59;40.85;100399.86;1582768;88;21095;-92